sensor_id;sensor_type;location;lat;lon;timestamp;P1;durP1;ratioP1;P2;durP2;ratioP2
6825;SDS011;3451;52.476;13.316;2023-06-19T00:01:29;12.27;;;10.83;;
6825;SDS011;3451;52.476;13.316;2023-06-19T00:03:55;11.57;;;10.37;;
6825;SDS011;3451;52.476;13.316;2023-06-19T00:06:21;12.00;;;10.60;;
6825;SDS011;3451;52.476;13.316;2023-06-19T00:08:48;12.20;;;10.97;;
6825;SDS011;3451;52.476;13.316;2023-06-19T00:11:14;12.50;;;10.93;;
6825;SDS011;3451;52.476;13.316;2023-06-19T00:13:40;12.23;;;10.93;;
6825;SDS011;3451;52.476;13.316;2023-06-19T00:16:07;12.37;;;10.60;;
6825;SDS011;3451;52.476;13.316;2023-06-19T00:18:33;11.77;;;10.67;;
6825;SDS011;3451;52.476;13.316;2023-06-19T00:21:06;12.27;;;10.60;;
6825;SDS011;3451;52.476;13.316;2023-06-19T00:23:33;12.57;;;10.33;;
6825;SDS011;3451;52.476;13.316;2023-06-19T00:26:00;12.17;;;10.97;;
6825;SDS011;3451;52.476;13.316;2023-06-19T00:28:29;12.60;;;11.30;;
6825;SDS011;3451;52.476;13.316;2023-06-19T00:30:56;11.80;;;10.57;;
6825;SDS011;3451;52.476;13.316;2023-06-19T00:33:22;12.33;;;11.10;;
6825;SDS011;3451;52.476;13.316;2023-06-19T00:35:51;12.70;;;11.00;;
6825;SDS011;3451;52.476;13.316;2023-06-19T00:38:18;12.53;;;11.23;;
6825;SDS011;3451;52.476;13.316;2023-06-19T00:40:45;13.90;;;11.97;;
6825;SDS011;3451;52.476;13.316;2023-06-19T00:43:11;12.60;;;11.40;;
6825;SDS011;3451;52.476;13.316;2023-06-19T00:45:38;13.87;;;11.80;;
6825;SDS011;3451;52.476;13.316;2023-06-19T00:48:05;14.10;;;12.00;;
6825;SDS011;3451;52.476;13.316;2023-06-19T00:50:31;12.27;;;11.03;;
6825;SDS011;3451;52.476;13.316;2023-06-19T00:52:58;12.77;;;11.57;;
6825;SDS011;3451;52.476;13.316;2023-06-19T00:55:25;12.83;;;11.43;;
6825;SDS011;3451;52.476;13.316;2023-06-19T00:57:51;12.83;;;11.53;;
6825;SDS011;3451;52.476;13.316;2023-06-19T01:00:19;12.30;;;11.00;;
6825;SDS011;3451;52.476;13.316;2023-06-19T01:02:46;11.80;;;10.67;;
6825;SDS011;3451;52.476;13.316;2023-06-19T01:05:13;12.73;;;11.37;;
6825;SDS011;3451;52.476;13.316;2023-06-19T01:10:30;12.93;;;10.90;;
6825;SDS011;3451;52.476;13.316;2023-06-19T01:13:02;12.40;;;11.10;;
6825;SDS011;3451;52.476;13.316;2023-06-19T01:15:32;12.57;;;11.20;;
6825;SDS011;3451;52.476;13.316;2023-06-19T01:17:58;12.63;;;11.33;;
6825;SDS011;3451;52.476;13.316;2023-06-19T01:20:25;12.80;;;11.60;;
6825;SDS011;3451;52.476;13.316;2023-06-19T01:22:51;12.43;;;11.07;;
6825;SDS011;3451;52.476;13.316;2023-06-19T01:25:18;12.53;;;10.83;;
6825;SDS011;3451;52.476;13.316;2023-06-19T01:27:44;12.53;;;11.13;;
6825;SDS011;3451;52.476;13.316;2023-06-19T01:30:11;11.37;;;10.27;;
6825;SDS011;3451;52.476;13.316;2023-06-19T01:32:40;12.33;;;11.03;;
6825;SDS011;3451;52.476;13.316;2023-06-19T01:35:07;13.03;;;11.70;;
6825;SDS011;3451;52.476;13.316;2023-06-19T01:37:37;12.27;;;11.07;;
6825;SDS011;3451;52.476;13.316;2023-06-19T01:40:05;13.23;;;11.40;;
6825;SDS011;3451;52.476;13.316;2023-06-19T01:42:32;12.47;;;11.23;;
6825;SDS011;3451;52.476;13.316;2023-06-19T01:45:00;12.63;;;11.23;;
6825;SDS011;3451;52.476;13.316;2023-06-19T01:47:29;14.53;;;12.50;;
6825;SDS011;3451;52.476;13.316;2023-06-19T01:49:55;14.03;;;12.53;;
6825;SDS011;3451;52.476;13.316;2023-06-19T01:52:21;13.10;;;11.77;;
6825;SDS011;3451;52.476;13.316;2023-06-19T01:54:48;13.87;;;12.47;;
6825;SDS011;3451;52.476;13.316;2023-06-19T01:57:14;13.23;;;11.93;;
6825;SDS011;3451;52.476;13.316;2023-06-19T01:59:40;12.87;;;11.57;;
6825;SDS011;3451;52.476;13.316;2023-06-19T02:02:08;13.20;;;11.80;;
6825;SDS011;3451;52.476;13.316;2023-06-19T02:04:34;13.33;;;12.00;;
6825;SDS011;3451;52.476;13.316;2023-06-19T02:07:00;14.13;;;12.63;;
6825;SDS011;3451;52.476;13.316;2023-06-19T02:09:27;14.37;;;12.87;;
6825;SDS011;3451;52.476;13.316;2023-06-19T02:11:53;13.80;;;12.27;;
6825;SDS011;3451;52.476;13.316;2023-06-19T02:14:20;14.27;;;12.67;;
6825;SDS011;3451;52.476;13.316;2023-06-19T02:16:46;15.00;;;13.07;;
6825;SDS011;3451;52.476;13.316;2023-06-19T02:19:12;13.93;;;12.63;;
6825;SDS011;3451;52.476;13.316;2023-06-19T02:21:38;14.20;;;12.83;;
6825;SDS011;3451;52.476;13.316;2023-06-19T02:24:05;14.50;;;13.10;;
6825;SDS011;3451;52.476;13.316;2023-06-19T02:26:32;16.53;;;13.80;;
6825;SDS011;3451;52.476;13.316;2023-06-19T02:28:58;14.63;;;13.00;;
6825;SDS011;3451;52.476;13.316;2023-06-19T02:31:24;19.50;;;12.87;;
6825;SDS011;3451;52.476;13.316;2023-06-19T02:33:51;14.57;;;13.17;;
6825;SDS011;3451;52.476;13.316;2023-06-19T02:36:17;14.60;;;13.07;;
6825;SDS011;3451;52.476;13.316;2023-06-19T02:38:47;15.10;;;13.60;;
6825;SDS011;3451;52.476;13.316;2023-06-19T02:41:13;14.40;;;12.90;;
6825;SDS011;3451;52.476;13.316;2023-06-19T02:43:43;14.27;;;12.90;;
6825;SDS011;3451;52.476;13.316;2023-06-19T02:46:10;14.43;;;12.93;;
6825;SDS011;3451;52.476;13.316;2023-06-19T02:48:38;14.53;;;13.00;;
6825;SDS011;3451;52.476;13.316;2023-06-19T02:51:05;15.47;;;13.87;;
6825;SDS011;3451;52.476;13.316;2023-06-19T02:53:31;14.70;;;13.20;;
6825;SDS011;3451;52.476;13.316;2023-06-19T02:55:57;14.50;;;13.10;;
6825;SDS011;3451;52.476;13.316;2023-06-19T02:58:24;15.27;;;13.67;;
6825;SDS011;3451;52.476;13.316;2023-06-19T03:00:53;14.67;;;13.17;;
6825;SDS011;3451;52.476;13.316;2023-06-19T03:03:19;15.20;;;13.63;;
6825;SDS011;3451;52.476;13.316;2023-06-19T03:05:46;14.33;;;12.93;;
6825;SDS011;3451;52.476;13.316;2023-06-19T03:08:12;15.33;;;13.83;;
6825;SDS011;3451;52.476;13.316;2023-06-19T03:10:38;14.80;;;13.10;;
6825;SDS011;3451;52.476;13.316;2023-06-19T03:13:05;14.63;;;13.23;;
6825;SDS011;3451;52.476;13.316;2023-06-19T03:15:31;15.33;;;13.73;;
6825;SDS011;3451;52.476;13.316;2023-06-19T03:17:57;15.13;;;13.53;;
6825;SDS011;3451;52.476;13.316;2023-06-19T03:20:24;16.00;;;14.40;;
6825;SDS011;3451;52.476;13.316;2023-06-19T03:22:51;15.83;;;13.33;;
6825;SDS011;3451;52.476;13.316;2023-06-19T03:25:17;15.97;;;14.20;;
6825;SDS011;3451;52.476;13.316;2023-06-19T03:27:46;15.87;;;14.27;;
6825;SDS011;3451;52.476;13.316;2023-06-19T03:30:12;15.70;;;14.10;;
6825;SDS011;3451;52.476;13.316;2023-06-19T03:32:39;16.07;;;14.37;;
6825;SDS011;3451;52.476;13.316;2023-06-19T03:35:05;15.97;;;14.27;;
6825;SDS011;3451;52.476;13.316;2023-06-19T03:37:31;15.97;;;14.37;;
6825;SDS011;3451;52.476;13.316;2023-06-19T03:40:01;18.60;;;14.57;;
6825;SDS011;3451;52.476;13.316;2023-06-19T03:42:29;15.63;;;13.97;;
6825;SDS011;3451;52.476;13.316;2023-06-19T03:44:55;16.03;;;14.43;;
6825;SDS011;3451;52.476;13.316;2023-06-19T03:47:21;16.00;;;14.40;;
6825;SDS011;3451;52.476;13.316;2023-06-19T03:49:48;16.53;;;14.27;;
6825;SDS011;3451;52.476;13.316;2023-06-19T03:52:14;16.17;;;14.47;;
6825;SDS011;3451;52.476;13.316;2023-06-19T03:54:41;17.03;;;14.03;;
6825;SDS011;3451;52.476;13.316;2023-06-19T03:57:07;15.93;;;14.30;;
6825;SDS011;3451;52.476;13.316;2023-06-19T03:59:34;16.47;;;14.77;;
6825;SDS011;3451;52.476;13.316;2023-06-19T04:02:01;16.30;;;14.50;;
6825;SDS011;3451;52.476;13.316;2023-06-19T04:04:27;16.63;;;14.93;;
6825;SDS011;3451;52.476;13.316;2023-06-19T04:06:54;17.83;;;14.90;;
6825;SDS011;3451;52.476;13.316;2023-06-19T04:09:21;16.90;;;14.73;;
6825;SDS011;3451;52.476;13.316;2023-06-19T04:11:47;16.43;;;14.80;;
6825;SDS011;3451;52.476;13.316;2023-06-19T04:14:14;15.93;;;14.33;;
6825;SDS011;3451;52.476;13.316;2023-06-19T04:16:40;16.53;;;14.83;;
6825;SDS011;3451;52.476;13.316;2023-06-19T04:19:06;18.60;;;14.87;;
6825;SDS011;3451;52.476;13.316;2023-06-19T04:21:33;15.63;;;14.03;;
6825;SDS011;3451;52.476;13.316;2023-06-19T04:23:59;15.13;;;13.63;;
6825;SDS011;3451;52.476;13.316;2023-06-19T04:26:25;15.87;;;14.27;;
6825;SDS011;3451;52.476;13.316;2023-06-19T04:28:52;14.70;;;13.23;;
6825;SDS011;3451;52.476;13.316;2023-06-19T04:31:18;15.70;;;14.10;;
6825;SDS011;3451;52.476;13.316;2023-06-19T04:33:45;15.73;;;13.87;;
6825;SDS011;3451;52.476;13.316;2023-06-19T04:36:11;15.83;;;14.23;;
6825;SDS011;3451;52.476;13.316;2023-06-19T04:38:37;14.93;;;13.43;;
6825;SDS011;3451;52.476;13.316;2023-06-19T04:41:04;15.30;;;13.77;;
6825;SDS011;3451;52.476;13.316;2023-06-19T04:43:30;14.33;;;12.93;;
6825;SDS011;3451;52.476;13.316;2023-06-19T04:45:56;15.80;;;13.87;;
6825;SDS011;3451;52.476;13.316;2023-06-19T04:48:23;15.37;;;13.57;;
6825;SDS011;3451;52.476;13.316;2023-06-19T04:50:51;15.70;;;14.13;;
6825;SDS011;3451;52.476;13.316;2023-06-19T04:53:18;15.70;;;14.10;;
6825;SDS011;3451;52.476;13.316;2023-06-19T04:55:44;16.00;;;14.40;;
6825;SDS011;3451;52.476;13.316;2023-06-19T04:58:11;16.43;;;14.53;;
6825;SDS011;3451;52.476;13.316;2023-06-19T05:00:37;14.77;;;13.37;;
6825;SDS011;3451;52.476;13.316;2023-06-19T05:03:03;15.90;;;14.13;;
6825;SDS011;3451;52.476;13.316;2023-06-19T05:05:30;16.17;;;13.80;;
6825;SDS011;3451;52.476;13.316;2023-06-19T05:07:56;15.63;;;13.90;;
6825;SDS011;3451;52.476;13.316;2023-06-19T05:10:23;15.20;;;13.60;;
6825;SDS011;3451;52.476;13.316;2023-06-19T05:12:49;15.00;;;13.47;;
6825;SDS011;3451;52.476;13.316;2023-06-19T05:15:16;15.70;;;13.67;;
6825;SDS011;3451;52.476;13.316;2023-06-19T05:17:42;15.33;;;13.80;;
6825;SDS011;3451;52.476;13.316;2023-06-19T05:20:09;16.07;;;14.37;;
6825;SDS011;3451;52.476;13.316;2023-06-19T05:22:35;15.77;;;13.73;;
6825;SDS011;3451;52.476;13.316;2023-06-19T05:25:03;15.13;;;13.60;;
6825;SDS011;3451;52.476;13.316;2023-06-19T05:27:29;15.50;;;13.83;;
6825;SDS011;3451;52.476;13.316;2023-06-19T05:29:56;16.70;;;14.37;;
6825;SDS011;3451;52.476;13.316;2023-06-19T05:32:22;17.83;;;14.10;;
6825;SDS011;3451;52.476;13.316;2023-06-19T05:34:48;15.60;;;14.00;;
6825;SDS011;3451;52.476;13.316;2023-06-19T05:37:16;18.10;;;14.20;;
6825;SDS011;3451;52.476;13.316;2023-06-19T05:39:42;19.07;;;14.57;;
6825;SDS011;3451;52.476;13.316;2023-06-19T05:42:08;15.93;;;14.43;;
6825;SDS011;3451;52.476;13.316;2023-06-19T05:44:35;15.43;;;13.93;;
6825;SDS011;3451;52.476;13.316;2023-06-19T05:47:01;15.93;;;14.23;;
6825;SDS011;3451;52.476;13.316;2023-06-19T05:49:28;15.97;;;14.27;;
6825;SDS011;3451;52.476;13.316;2023-06-19T05:51:55;15.23;;;13.63;;
6825;SDS011;3451;52.476;13.316;2023-06-19T05:54:25;15.57;;;13.30;;
6825;SDS011;3451;52.476;13.316;2023-06-19T05:56:52;15.53;;;14.00;;
6825;SDS011;3451;52.476;13.316;2023-06-19T05:59:18;15.73;;;14.07;;
6825;SDS011;3451;52.476;13.316;2023-06-19T06:01:44;14.83;;;13.33;;
6825;SDS011;3451;52.476;13.316;2023-06-19T06:04:11;16.63;;;14.07;;
6825;SDS011;3451;52.476;13.316;2023-06-19T06:06:37;17.90;;;14.07;;
6825;SDS011;3451;52.476;13.316;2023-06-19T06:09:03;15.63;;;14.00;;
6825;SDS011;3451;52.476;13.316;2023-06-19T06:11:31;16.53;;;14.40;;
6825;SDS011;3451;52.476;13.316;2023-06-19T06:13:57;16.80;;;13.47;;
6825;SDS011;3451;52.476;13.316;2023-06-19T06:16:23;15.33;;;13.73;;
6825;SDS011;3451;52.476;13.316;2023-06-19T06:18:50;15.93;;;14.13;;
6825;SDS011;3451;52.476;13.316;2023-06-19T06:21:16;16.13;;;14.43;;
6825;SDS011;3451;52.476;13.316;2023-06-19T06:23:42;16.63;;;14.93;;
6825;SDS011;3451;52.476;13.316;2023-06-19T06:26:10;17.13;;;14.57;;
6825;SDS011;3451;52.476;13.316;2023-06-19T06:28:37;16.43;;;14.60;;
6825;SDS011;3451;52.476;13.316;2023-06-19T06:31:04;16.60;;;14.83;;
6825;SDS011;3451;52.476;13.316;2023-06-19T06:33:31;17.43;;;14.23;;
6825;SDS011;3451;52.476;13.316;2023-06-19T06:35:57;18.13;;;15.17;;
6825;SDS011;3451;52.476;13.316;2023-06-19T06:38:23;18.67;;;14.80;;
6825;SDS011;3451;52.476;13.316;2023-06-19T06:40:50;16.37;;;14.67;;
6825;SDS011;3451;52.476;13.316;2023-06-19T06:43:17;16.30;;;14.27;;
6825;SDS011;3451;52.476;13.316;2023-06-19T06:45:43;18.30;;;14.57;;
6825;SDS011;3451;52.476;13.316;2023-06-19T06:48:10;16.10;;;14.50;;
6825;SDS011;3451;52.476;13.316;2023-06-19T06:50:36;15.93;;;14.23;;
6825;SDS011;3451;52.476;13.316;2023-06-19T06:53:02;16.90;;;14.67;;
6825;SDS011;3451;52.476;13.316;2023-06-19T06:55:29;17.27;;;14.67;;
6825;SDS011;3451;52.476;13.316;2023-06-19T06:57:55;16.97;;;14.30;;
6825;SDS011;3451;52.476;13.316;2023-06-19T07:00:21;17.33;;;14.93;;
6825;SDS011;3451;52.476;13.316;2023-06-19T07:02:48;18.60;;;14.03;;
6825;SDS011;3451;52.476;13.316;2023-06-19T07:05:16;18.93;;;15.60;;
6825;SDS011;3451;52.476;13.316;2023-06-19T07:07:43;18.53;;;14.53;;
6825;SDS011;3451;52.476;13.316;2023-06-19T07:10:09;16.33;;;14.70;;
6825;SDS011;3451;52.476;13.316;2023-06-19T07:12:43;16.60;;;14.67;;
6825;SDS011;3451;52.476;13.316;2023-06-19T07:15:10;17.53;;;14.37;;
6825;SDS011;3451;52.476;13.316;2023-06-19T07:17:37;15.47;;;13.80;;
6825;SDS011;3451;52.476;13.316;2023-06-19T07:20:04;18.47;;;14.27;;
6825;SDS011;3451;52.476;13.316;2023-06-19T07:22:30;15.27;;;13.67;;
6825;SDS011;3451;52.476;13.316;2023-06-19T07:24:56;15.70;;;14.00;;
6825;SDS011;3451;52.476;13.316;2023-06-19T07:27:23;17.87;;;14.00;;
6825;SDS011;3451;52.476;13.316;2023-06-19T07:29:53;16.57;;;14.97;;
6825;SDS011;3451;52.476;13.316;2023-06-19T07:32:19;16.17;;;13.70;;
6825;SDS011;3451;52.476;13.316;2023-06-19T07:34:46;15.13;;;13.57;;
6825;SDS011;3451;52.476;13.316;2023-06-19T07:37:13;15.30;;;13.50;;
6825;SDS011;3451;52.476;13.316;2023-06-19T07:39:47;15.10;;;13.60;;
6825;SDS011;3451;52.476;13.316;2023-06-19T07:42:14;17.77;;;13.30;;
6825;SDS011;3451;52.476;13.316;2023-06-19T07:44:40;14.90;;;13.47;;
6825;SDS011;3451;52.476;13.316;2023-06-19T07:47:07;15.93;;;13.33;;
6825;SDS011;3451;52.476;13.316;2023-06-19T07:49:34;14.10;;;12.67;;
6825;SDS011;3451;52.476;13.316;2023-06-19T07:52:00;14.87;;;13.37;;
6825;SDS011;3451;52.476;13.316;2023-06-19T07:54:27;14.10;;;12.60;;
6825;SDS011;3451;52.476;13.316;2023-06-19T07:56:53;14.07;;;12.53;;
6825;SDS011;3451;52.476;13.316;2023-06-19T07:59:19;18.03;;;12.93;;
6825;SDS011;3451;52.476;13.316;2023-06-19T08:01:45;14.00;;;12.07;;
6825;SDS011;3451;52.476;13.316;2023-06-19T08:04:12;13.73;;;12.33;;
6825;SDS011;3451;52.476;13.316;2023-06-19T08:06:38;13.23;;;11.80;;
6825;SDS011;3451;52.476;13.316;2023-06-19T08:09:05;14.33;;;11.70;;
6825;SDS011;3451;52.476;13.316;2023-06-19T08:11:31;14.10;;;12.03;;
6825;SDS011;3451;52.476;13.316;2023-06-19T08:13:57;15.77;;;12.07;;
6825;SDS011;3451;52.476;13.316;2023-06-19T08:16:24;15.23;;;12.30;;
6825;SDS011;3451;52.476;13.316;2023-06-19T08:18:51;14.27;;;12.00;;
6825;SDS011;3451;52.476;13.316;2023-06-19T08:21:18;14.90;;;11.70;;
6825;SDS011;3451;52.476;13.316;2023-06-19T08:23:44;17.00;;;12.37;;
6825;SDS011;3451;52.476;13.316;2023-06-19T08:26:11;14.57;;;12.97;;
6825;SDS011;3451;52.476;13.316;2023-06-19T08:28:37;14.20;;;12.70;;
6825;SDS011;3451;52.476;13.316;2023-06-19T08:31:03;13.60;;;12.20;;
6825;SDS011;3451;52.476;13.316;2023-06-19T08:33:30;16.47;;;12.53;;
6825;SDS011;3451;52.476;13.316;2023-06-19T08:35:56;17.17;;;12.83;;
6825;SDS011;3451;52.476;13.316;2023-06-19T08:38:22;13.27;;;11.97;;
6825;SDS011;3451;52.476;13.316;2023-06-19T08:40:49;14.63;;;12.13;;
6825;SDS011;3451;52.476;13.316;2023-06-19T08:43:16;16.07;;;11.80;;
6825;SDS011;3451;52.476;13.316;2023-06-19T08:45:42;13.33;;;11.93;;
6825;SDS011;3451;52.476;13.316;2023-06-19T08:48:13;12.67;;;11.37;;
6825;SDS011;3451;52.476;13.316;2023-06-19T08:50:39;14.03;;;12.00;;
6825;SDS011;3451;52.476;13.316;2023-06-19T08:53:05;13.50;;;12.17;;
6825;SDS011;3451;52.476;13.316;2023-06-19T08:55:32;15.03;;;12.60;;
6825;SDS011;3451;52.476;13.316;2023-06-19T08:57:58;17.27;;;12.17;;
6825;SDS011;3451;52.476;13.316;2023-06-19T09:00:28;14.77;;;12.53;;
6825;SDS011;3451;52.476;13.316;2023-06-19T09:03:02;17.17;;;12.50;;
6825;SDS011;3451;52.476;13.316;2023-06-19T09:05:40;15.43;;;12.50;;
6825;SDS011;3451;52.476;13.316;2023-06-19T09:08:07;14.27;;;12.80;;
6825;SDS011;3451;52.476;13.316;2023-06-19T09:10:39;13.50;;;12.17;;
6825;SDS011;3451;52.476;13.316;2023-06-19T09:13:05;16.80;;;12.80;;
6825;SDS011;3451;52.476;13.316;2023-06-19T09:15:34;13.77;;;11.97;;
6825;SDS011;3451;52.476;13.316;2023-06-19T09:18:04;16.03;;;13.17;;
6825;SDS011;3451;52.476;13.316;2023-06-19T09:20:33;13.70;;;12.27;;
6825;SDS011;3451;52.476;13.316;2023-06-19T09:23:00;14.10;;;12.70;;
6825;SDS011;3451;52.476;13.316;2023-06-19T09:25:26;14.63;;;12.33;;
6825;SDS011;3451;52.476;13.316;2023-06-19T09:27:56;18.83;;;12.07;;
6825;SDS011;3451;52.476;13.316;2023-06-19T09:30:22;15.40;;;12.17;;
6825;SDS011;3451;52.476;13.316;2023-06-19T09:32:49;12.53;;;11.23;;
6825;SDS011;3451;52.476;13.316;2023-06-19T09:35:15;13.73;;;12.27;;
6825;SDS011;3451;52.476;13.316;2023-06-19T09:37:42;14.33;;;12.83;;
6825;SDS011;3451;52.476;13.316;2023-06-19T09:40:11;13.67;;;12.27;;
6825;SDS011;3451;52.476;13.316;2023-06-19T09:42:41;14.27;;;12.77;;
6825;SDS011;3451;52.476;13.316;2023-06-19T09:45:10;14.03;;;12.47;;
6825;SDS011;3451;52.476;13.316;2023-06-19T09:47:38;13.80;;;11.53;;
6825;SDS011;3451;52.476;13.316;2023-06-19T09:50:05;13.90;;;12.43;;
6825;SDS011;3451;52.476;13.316;2023-06-19T09:52:32;13.93;;;12.13;;
6825;SDS011;3451;52.476;13.316;2023-06-19T09:55:01;14.67;;;13.23;;
6825;SDS011;3451;52.476;13.316;2023-06-19T09:57:28;15.50;;;12.67;;
6825;SDS011;3451;52.476;13.316;2023-06-19T09:59:55;13.57;;;12.27;;
6825;SDS011;3451;52.476;13.316;2023-06-19T10:02:24;13.87;;;12.07;;
6825;SDS011;3451;52.476;13.316;2023-06-19T10:04:52;14.13;;;12.70;;
6825;SDS011;3451;52.476;13.316;2023-06-19T10:07:22;14.40;;;12.80;;
6825;SDS011;3451;52.476;13.316;2023-06-19T10:09:56;19.37;;;12.77;;
6825;SDS011;3451;52.476;13.316;2023-06-19T10:12:22;13.80;;;12.47;;
6825;SDS011;3451;52.476;13.316;2023-06-19T10:15:06;14.23;;;12.73;;
6825;SDS011;3451;52.476;13.316;2023-06-19T10:17:33;13.87;;;12.17;;
6825;SDS011;3451;52.476;13.316;2023-06-19T10:19:59;14.37;;;12.67;;
6825;SDS011;3451;52.476;13.316;2023-06-19T10:22:32;13.77;;;12.33;;
6825;SDS011;3451;52.476;13.316;2023-06-19T10:24:58;15.63;;;12.83;;
6825;SDS011;3451;52.476;13.316;2023-06-19T10:27:25;14.23;;;12.53;;
6825;SDS011;3451;52.476;13.316;2023-06-19T10:29:52;13.67;;;12.03;;
6825;SDS011;3451;52.476;13.316;2023-06-19T10:32:36;15.73;;;13.03;;
6825;SDS011;3451;52.476;13.316;2023-06-19T10:35:10;14.80;;;12.87;;
6825;SDS011;3451;52.476;13.316;2023-06-19T10:37:36;13.83;;;12.43;;
6825;SDS011;3451;52.476;13.316;2023-06-19T10:40:03;13.37;;;11.97;;
6825;SDS011;3451;52.476;13.316;2023-06-19T10:42:34;14.17;;;12.07;;
6825;SDS011;3451;52.476;13.316;2023-06-19T10:45:03;13.90;;;12.50;;
6825;SDS011;3451;52.476;13.316;2023-06-19T10:47:32;16.27;;;13.80;;
6825;SDS011;3451;52.476;13.316;2023-06-19T10:49:58;14.33;;;12.93;;
6825;SDS011;3451;52.476;13.316;2023-06-19T10:52:25;14.37;;;12.87;;
6825;SDS011;3451;52.476;13.316;2023-06-19T10:54:54;14.37;;;12.17;;
6825;SDS011;3451;52.476;13.316;2023-06-19T10:57:27;13.07;;;11.73;;
6825;SDS011;3451;52.476;13.316;2023-06-19T10:59:53;13.80;;;12.40;;
6825;SDS011;3451;52.476;13.316;2023-06-19T11:02:20;12.87;;;11.63;;
6825;SDS011;3451;52.476;13.316;2023-06-19T11:04:47;16.37;;;12.10;;
6825;SDS011;3451;52.476;13.316;2023-06-19T11:07:13;13.00;;;11.70;;
6825;SDS011;3451;52.476;13.316;2023-06-19T11:09:40;13.17;;;11.57;;
6825;SDS011;3451;52.476;13.316;2023-06-19T11:12:10;12.80;;;11.50;;
6825;SDS011;3451;52.476;13.316;2023-06-19T11:14:36;13.43;;;11.40;;
6825;SDS011;3451;52.476;13.316;2023-06-19T11:17:06;12.60;;;11.40;;
6825;SDS011;3451;52.476;13.316;2023-06-19T11:19:32;13.00;;;11.60;;
6825;SDS011;3451;52.476;13.316;2023-06-19T11:22:02;12.30;;;11.10;;
6825;SDS011;3451;52.476;13.316;2023-06-19T11:24:29;12.30;;;11.00;;
6825;SDS011;3451;52.476;13.316;2023-06-19T11:26:56;12.83;;;11.33;;
6825;SDS011;3451;52.476;13.316;2023-06-19T11:29:25;12.57;;;11.27;;
6825;SDS011;3451;52.476;13.316;2023-06-19T11:31:53;12.77;;;11.47;;
6825;SDS011;3451;52.476;13.316;2023-06-19T11:34:30;12.87;;;11.67;;
6825;SDS011;3451;52.476;13.316;2023-06-19T11:36:56;12.40;;;11.27;;
6825;SDS011;3451;52.476;13.316;2023-06-19T11:39:23;13.43;;;11.87;;
6825;SDS011;3451;52.476;13.316;2023-06-19T11:41:49;12.37;;;11.17;;
6825;SDS011;3451;52.476;13.316;2023-06-19T11:44:20;13.33;;;11.77;;
6825;SDS011;3451;52.476;13.316;2023-06-19T11:46:46;14.67;;;12.10;;
6825;SDS011;3451;52.476;13.316;2023-06-19T11:49:13;12.60;;;11.30;;
6825;SDS011;3451;52.476;13.316;2023-06-19T11:51:40;14.27;;;12.03;;
6825;SDS011;3451;52.476;13.316;2023-06-19T11:54:07;13.23;;;11.13;;
6825;SDS011;3451;52.476;13.316;2023-06-19T11:56:38;13.23;;;11.83;;
6825;SDS011;3451;52.476;13.316;2023-06-19T11:59:04;13.60;;;11.13;;
6825;SDS011;3451;52.476;13.316;2023-06-19T12:01:34;11.60;;;10.43;;
6825;SDS011;3451;52.476;13.316;2023-06-19T12:04:01;13.20;;;10.73;;
6825;SDS011;3451;52.476;13.316;2023-06-19T12:06:28;11.20;;;10.00;;
6825;SDS011;3451;52.476;13.316;2023-06-19T12:08:55;14.30;;;10.43;;
6825;SDS011;3451;52.476;13.316;2023-06-19T12:11:21;11.00;;;9.90;;
6825;SDS011;3451;52.476;13.316;2023-06-19T12:13:48;10.90;;;9.80;;
6825;SDS011;3451;52.476;13.316;2023-06-19T12:16:14;11.90;;;10.57;;
6825;SDS011;3451;52.476;13.316;2023-06-19T12:18:41;10.83;;;9.83;;
6825;SDS011;3451;52.476;13.316;2023-06-19T12:21:07;10.90;;;9.60;;
6825;SDS011;3451;52.476;13.316;2023-06-19T12:23:50;11.73;;;9.70;;
6825;SDS011;3451;52.476;13.316;2023-06-19T12:26:16;11.60;;;10.40;;
6825;SDS011;3451;52.476;13.316;2023-06-19T12:28:42;11.10;;;10.00;;
6825;SDS011;3451;52.476;13.316;2023-06-19T12:31:09;13.20;;;10.37;;
6825;SDS011;3451;52.476;13.316;2023-06-19T12:33:36;10.77;;;9.37;;
6825;SDS011;3451;52.476;13.316;2023-06-19T12:36:05;11.53;;;10.30;;
6825;SDS011;3451;52.476;13.316;2023-06-19T12:38:31;14.53;;;10.60;;
6825;SDS011;3451;52.476;13.316;2023-06-19T12:40:57;16.43;;;10.27;;
6825;SDS011;3451;52.476;13.316;2023-06-19T12:43:24;12.13;;;10.37;;
6825;SDS011;3451;52.476;13.316;2023-06-19T12:45:50;10.70;;;9.63;;
6825;SDS011;3451;52.476;13.316;2023-06-19T12:48:16;10.73;;;9.57;;
6825;SDS011;3451;52.476;13.316;2023-06-19T12:50:43;12.00;;;9.83;;
6825;SDS011;3451;52.476;13.316;2023-06-19T12:53:09;12.03;;;10.17;;
6825;SDS011;3451;52.476;13.316;2023-06-19T12:55:37;10.90;;;9.87;;
6825;SDS011;3451;52.476;13.316;2023-06-19T12:58:17;11.33;;;9.80;;
6825;SDS011;3451;52.476;13.316;2023-06-19T13:00:43;11.47;;;10.20;;
6825;SDS011;3451;52.476;13.316;2023-06-19T13:03:10;11.53;;;10.43;;
6825;SDS011;3451;52.476;13.316;2023-06-19T13:05:36;12.33;;;10.33;;
6825;SDS011;3451;52.476;13.316;2023-06-19T13:08:02;11.67;;;10.57;;
6825;SDS011;3451;52.476;13.316;2023-06-19T13:10:29;12.30;;;10.47;;
6825;SDS011;3451;52.476;13.316;2023-06-19T13:12:55;11.30;;;10.20;;
6825;SDS011;3451;52.476;13.316;2023-06-19T13:15:24;12.43;;;11.13;;
6825;SDS011;3451;52.476;13.316;2023-06-19T13:17:50;11.50;;;10.40;;
6825;SDS011;3451;52.476;13.316;2023-06-19T13:20:17;12.77;;;11.33;;
6825;SDS011;3451;52.476;13.316;2023-06-19T13:22:43;12.70;;;11.40;;
6825;SDS011;3451;52.476;13.316;2023-06-19T13:25:09;11.83;;;10.63;;
6825;SDS011;3451;52.476;13.316;2023-06-19T13:27:36;12.00;;;10.83;;
6825;SDS011;3451;52.476;13.316;2023-06-19T13:30:02;12.43;;;11.13;;
6825;SDS011;3451;52.476;13.316;2023-06-19T13:32:28;12.90;;;11.50;;
6825;SDS011;3451;52.476;13.316;2023-06-19T13:34:55;13.30;;;11.90;;
6825;SDS011;3451;52.476;13.316;2023-06-19T13:37:22;14.02;;;11.90;;
6825;SDS011;3451;52.476;13.316;2023-06-19T13:39:49;12.70;;;11.40;;
6825;SDS011;3451;52.476;13.316;2023-06-19T13:42:16;11.97;;;10.87;;
6825;SDS011;3451;52.476;13.316;2023-06-19T13:44:42;12.80;;;11.60;;
6825;SDS011;3451;52.476;13.316;2023-06-19T13:47:08;12.87;;;11.50;;
6825;SDS011;3451;52.476;13.316;2023-06-19T13:49:35;13.07;;;11.50;;
6825;SDS011;3451;52.476;13.316;2023-06-19T13:52:01;14.05;;;12.48;;
6825;SDS011;3451;52.476;13.316;2023-06-19T13:54:27;12.40;;;11.20;;
6825;SDS011;3451;52.476;13.316;2023-06-19T13:56:53;13.18;;;11.98;;
6825;SDS011;3451;52.476;13.316;2023-06-19T13:59:20;14.55;;;12.23;;
6825;SDS011;3451;52.476;13.316;2023-06-19T14:01:46;13.77;;;11.45;;
6825;SDS011;3451;52.476;13.316;2023-06-19T14:04:12;15.27;;;12.00;;
6825;SDS011;3451;52.476;13.316;2023-06-19T14:06:39;13.15;;;11.75;;
6825;SDS011;3451;52.476;13.316;2023-06-19T14:09:08;12.55;;;11.30;;
6825;SDS011;3451;52.476;13.316;2023-06-19T14:11:34;12.70;;;10.68;;
6825;SDS011;3451;52.476;13.316;2023-06-19T14:14:01;12.50;;;10.80;;
6825;SDS011;3451;52.476;13.316;2023-06-19T14:16:27;11.88;;;10.77;;
6825;SDS011;3451;52.476;13.316;2023-06-19T14:18:53;12.25;;;11.02;;
6825;SDS011;3451;52.476;13.316;2023-06-19T14:21:20;14.00;;;11.20;;
6825;SDS011;3451;52.476;13.316;2023-06-19T14:23:47;12.00;;;10.80;;
6825;SDS011;3451;52.476;13.316;2023-06-19T14:26:14;14.88;;;10.73;;
6825;SDS011;3451;52.476;13.316;2023-06-19T14:28:40;13.80;;;11.20;;
6825;SDS011;3451;52.476;13.316;2023-06-19T14:31:06;12.70;;;11.32;;
6825;SDS011;3451;52.476;13.316;2023-06-19T14:33:33;12.95;;;11.38;;
6825;SDS011;3451;52.476;13.316;2023-06-19T14:36:01;12.43;;;11.10;;
6825;SDS011;3451;52.476;13.316;2023-06-19T14:38:29;12.48;;;11.27;;